UEEEUHBB

Guest
Details From UEEE - Yakutsk
To UHBB - Ignatyevo
Flight Number -
Tags Generated
Created
Modified
Stats Distance 704 nm / 1,303 km
Max Altitude 0 ft / 0 m
Waypoints 4
Social Downloads 0
Likes 0
Share VATSIM

Download

Looking for another format? Having issues loading an existing format? Contact us
Advertisement - Login to hide

Notes

Generated

Route

UEEE NISEL BM UHBB

ID Type Via Altitude Latitude Longitude Leg Dist Tot Dist Heading (true) Name
O UEEE APT - 0 ft / 0 m 62.08188˚ 129.75652˚ - 0 nm - -
NISEL FIX - 0 ft / 0 m 54.58333˚ 128.23333˚ 452 nm 452 nm 187° / 185° -
BM NDB - 0 ft / 0 m 50.47500˚ 127.39667˚ 248 nm 701 nm 187° / 187° BLAGOVESCHENSK NDB
O UHBB APT - 0 ft / 0 m 50.43781˚ 127.40845˚ 2 nm 703 nm 169° / 169° -

Altitude Profile

Advertisement - Login to hide

Weather


0- 5 10 15 20 25 30 35+ Temperature / ° C

Clouds and Precipitation
Forecast for 2017-12-19 00:00 UTC. Updated an hour ago

Ground ~20,000 ft ~40,000 ft Winds

UEEE

Details ICAO UEEE (YKS)
Name Yakutsk
Region Russia
Timezone Asia/Yakutsk (UTC+9.0)
Stats Elevation 325 ft / 99 m (AMSL)
Location 62.093249° 129.770678°
Runways 2
Magnetic Variation 15.673° W

METAR

UEEE 182030Z 05002MPS 2400 -SN BR NSC M41/M45 Q1017 R23L/490150 NOSIG RMK QFE754

Decode

TAF

TAF UEEE 182000Z 1821/2003 VRB01MPS 0300 FG VV002 TXM38/1906Z TNM43/1823Z TEMPO 1821/1912 1500 BR NSC

Decode

Departure Runways

ID Width Length Bearing (true) Bearing (mag) Surface Threshold Offset Overrun Length
05L 161 ft / 49 m 8,171 ft / 2,491 m 29.51° 45.18° Concrete 0 ft / 0 m 154 ft / 47 m
05R 197 ft / 60 m 11,120 ft / 3,389 m 36.88° 52.55° Asphalt 0 ft / 0 m 226 ft / 69 m
23L 197 ft / 60 m 11,120 ft / 3,389 m 216.92° 232.59° Asphalt 0 ft / 0 m 226 ft / 69 m
23R 161 ft / 49 m 8,171 ft / 2,491 m 209.53° 225.20° Concrete 3,399 ft / 1,036 m 164 ft / 50 m

UHBB

Details ICAO UHBB (BQS)
Name IGNATYEVO
Region Russia
Timezone Asia/Yakutsk (UTC+9.0)
Stats Elevation 638 ft / 194 m (AMSL)
Location 50.425395° 127.412489°
Runways 1
Magnetic Variation 12.263° W

METAR

UHBB 182030Z 28002MPS CAVOK M24/M31 Q1019 R36/410260 NOSIG RMK QFE746/0995

Decode

TAF

TAF UHBB 181935Z 1821/1921 27003MPS CAVOK= TAF UHSS 182000Z 1821/2003 VRB01MPS 9999 BKN030CB TEMPO 1821/1919 1000 SHSN BKN006 BKN015CB BECMG 1900/1902 32004MPS

Decode

Destination Runways

ID Width Length Bearing (true) Bearing (mag) Surface Threshold Offset Overrun Length
18 148 ft / 45 m 9,254 ft / 2,821 m 168.30° 180.56° Asphalt 0 ft / 0 m 145 ft / 44 m
36 148 ft / 45 m 9,254 ft / 2,821 m 348.30° 0.56° Asphalt 0 ft / 0 m 160 ft / 49 m

Approach Navaids

Runway Type Ident Frequency Range Bearing (true) Bearing (mag) Slope Elevation
36 Localiser ILZ 108.70 MHz 18 nm / 33 km 348.31° 0.57° - 638 ft / 194 m (AMSL)
36 Glidescope ILZ 108.70 MHz 10 nm / 19 km 348.30° 0.56° 3.05° 638 ft / 194 m (AMSL)

Popular Alternatives